sensor_id;sensor_type;location;lat;lon;timestamp;P1;durP1;ratioP1;P2;durP2;ratioP2
29200;SDS011;16244;51.956;12.980;2022-07-18T00:01:00;9.53;;;0.97;;
29200;SDS011;16244;51.956;12.980;2022-07-18T00:03:28;13.83;;;1.00;;
29200;SDS011;16244;51.956;12.980;2022-07-18T00:05:55;9.87;;;1.07;;
29200;SDS011;16244;51.956;12.980;2022-07-18T00:08:22;7.93;;;1.10;;
29200;SDS011;16244;51.956;12.980;2022-07-18T00:10:49;10.00;;;1.10;;
29200;SDS011;16244;51.956;12.980;2022-07-18T00:13:18;8.23;;;1.10;;
29200;SDS011;16244;51.956;12.980;2022-07-18T00:15:45;9.20;;;1.33;;
29200;SDS011;16244;51.956;12.980;2022-07-18T00:18:12;9.20;;;0.90;;
29200;SDS011;16244;51.956;12.980;2022-07-18T00:20:39;8.87;;;0.97;;
29200;SDS011;16244;51.956;12.980;2022-07-18T00:23:08;11.00;;;1.00;;
29200;SDS011;16244;51.956;12.980;2022-07-18T00:25:35;8.63;;;1.17;;
29200;SDS011;16244;51.956;12.980;2022-07-18T00:28:02;8.47;;;0.80;;
29200;SDS011;16244;51.956;12.980;2022-07-18T00:30:30;10.67;;;1.10;;
29200;SDS011;16244;51.956;12.980;2022-07-18T00:32:58;9.67;;;1.47;;
29200;SDS011;16244;51.956;12.980;2022-07-18T00:35:25;6.70;;;0.90;;
29200;SDS011;16244;51.956;12.980;2022-07-18T00:37:52;7.33;;;0.80;;
29200;SDS011;16244;51.956;12.980;2022-07-18T00:40:19;9.30;;;1.53;;
29200;SDS011;16244;51.956;12.980;2022-07-18T00:42:46;8.60;;;0.90;;
29200;SDS011;16244;51.956;12.980;2022-07-18T00:45:13;6.93;;;0.90;;
29200;SDS011;16244;51.956;12.980;2022-07-18T00:47:42;12.37;;;0.97;;
29200;SDS011;16244;51.956;12.980;2022-07-18T00:50:10;7.33;;;1.03;;
29200;SDS011;16244;51.956;12.980;2022-07-18T00:52:37;10.50;;;1.30;;
29200;SDS011;16244;51.956;12.980;2022-07-18T00:55:04;13.23;;;1.40;;
29200;SDS011;16244;51.956;12.980;2022-07-18T00:57:32;9.93;;;0.90;;
29200;SDS011;16244;51.956;12.980;2022-07-18T01:00:00;14.70;;;1.23;;
29200;SDS011;16244;51.956;12.980;2022-07-18T01:02:46;10.00;;;1.50;;
29200;SDS011;16244;51.956;12.980;2022-07-18T01:05:13;10.90;;;1.17;;
29200;SDS011;16244;51.956;12.980;2022-07-18T01:07:40;7.37;;;1.10;;
29200;SDS011;16244;51.956;12.980;2022-07-18T01:10:08;10.43;;;0.80;;
29200;SDS011;16244;51.956;12.980;2022-07-18T01:12:35;7.90;;;1.80;;
29200;SDS011;16244;51.956;12.980;2022-07-18T01:15:02;6.90;;;1.00;;
29200;SDS011;16244;51.956;12.980;2022-07-18T01:17:31;8.00;;;1.00;;
29200;SDS011;16244;51.956;12.980;2022-07-18T01:19:59;7.17;;;0.90;;
29200;SDS011;16244;51.956;12.980;2022-07-18T01:22:28;6.90;;;0.97;;
29200;SDS011;16244;51.956;12.980;2022-07-18T01:24:55;6.60;;;0.93;;
29200;SDS011;16244;51.956;12.980;2022-07-18T01:27:22;10.37;;;1.03;;
29200;SDS011;16244;51.956;12.980;2022-07-18T01:29:50;9.33;;;1.03;;
29200;SDS011;16244;51.956;12.980;2022-07-18T01:32:18;11.33;;;1.10;;
29200;SDS011;16244;51.956;12.980;2022-07-18T01:34:46;8.43;;;1.07;;
29200;SDS011;16244;51.956;12.980;2022-07-18T01:37:14;6.30;;;0.87;;
29200;SDS011;16244;51.956;12.980;2022-07-18T01:39:44;7.03;;;1.03;;
29200;SDS011;16244;51.956;12.980;2022-07-18T01:42:12;7.70;;;1.37;;
29200;SDS011;16244;51.956;12.980;2022-07-18T01:44:40;10.57;;;0.90;;
29200;SDS011;16244;51.956;12.980;2022-07-18T01:47:08;9.60;;;0.97;;
29200;SDS011;16244;51.956;12.980;2022-07-18T01:49:37;7.00;;;1.00;;
29200;SDS011;16244;51.956;12.980;2022-07-18T01:52:05;6.50;;;0.77;;
29200;SDS011;16244;51.956;12.980;2022-07-18T01:54:34;8.60;;;0.93;;
29200;SDS011;16244;51.956;12.980;2022-07-18T01:57:04;8.50;;;1.10;;
29200;SDS011;16244;51.956;12.980;2022-07-18T01:59:32;8.30;;;1.00;;
29200;SDS011;16244;51.956;12.980;2022-07-18T02:02:00;9.93;;;0.90;;
29200;SDS011;16244;51.956;12.980;2022-07-18T02:04:29;8.30;;;1.10;;
29200;SDS011;16244;51.956;12.980;2022-07-18T02:07:10;7.33;;;1.30;;
29200;SDS011;16244;51.956;12.980;2022-07-18T02:09:37;9.87;;;1.30;;
29200;SDS011;16244;51.956;12.980;2022-07-18T02:12:05;9.03;;;1.20;;
29200;SDS011;16244;51.956;12.980;2022-07-18T02:14:32;6.77;;;1.10;;
29200;SDS011;16244;51.956;12.980;2022-07-18T02:17:00;7.13;;;0.90;;
29200;SDS011;16244;51.956;12.980;2022-07-18T02:19:27;6.60;;;0.80;;
29200;SDS011;16244;51.956;12.980;2022-07-18T02:21:54;10.57;;;1.20;;
29200;SDS011;16244;51.956;12.980;2022-07-18T02:24:21;8.63;;;1.23;;
29200;SDS011;16244;51.956;12.980;2022-07-18T02:26:48;11.50;;;1.23;;
29200;SDS011;16244;51.956;12.980;2022-07-18T02:29:17;6.33;;;1.20;;
29200;SDS011;16244;51.956;12.980;2022-07-18T02:31:44;7.30;;;1.00;;
29200;SDS011;16244;51.956;12.980;2022-07-18T02:34:11;6.47;;;0.87;;
29200;SDS011;16244;51.956;12.980;2022-07-18T02:36:38;9.43;;;1.17;;
29200;SDS011;16244;51.956;12.980;2022-07-18T02:39:06;7.20;;;1.17;;
29200;SDS011;16244;51.956;12.980;2022-07-18T02:41:34;8.73;;;1.50;;
29200;SDS011;16244;51.956;12.980;2022-07-18T02:44:02;10.03;;;1.30;;
29200;SDS011;16244;51.956;12.980;2022-07-18T02:46:31;12.33;;;1.37;;
29200;SDS011;16244;51.956;12.980;2022-07-18T02:48:58;7.07;;;1.20;;
29200;SDS011;16244;51.956;12.980;2022-07-18T02:51:25;11.37;;;1.30;;
29200;SDS011;16244;51.956;12.980;2022-07-18T02:53:53;9.20;;;1.20;;
29200;SDS011;16244;51.956;12.980;2022-07-18T02:56:20;8.37;;;1.30;;
29200;SDS011;16244;51.956;12.980;2022-07-18T02:58:47;6.93;;;1.00;;
29200;SDS011;16244;51.956;12.980;2022-07-18T03:01:14;12.63;;;1.70;;
29200;SDS011;16244;51.956;12.980;2022-07-18T03:03:43;7.50;;;0.80;;
29200;SDS011;16244;51.956;12.980;2022-07-18T03:06:10;13.33;;;1.33;;
29200;SDS011;16244;51.956;12.980;2022-07-18T03:08:37;7.97;;;1.60;;
29200;SDS011;16244;51.956;12.980;2022-07-18T03:11:04;8.63;;;1.73;;
29200;SDS011;16244;51.956;12.980;2022-07-18T03:13:31;9.13;;;1.30;;
29200;SDS011;16244;51.956;12.980;2022-07-18T03:15:58;10.67;;;1.10;;
29200;SDS011;16244;51.956;12.980;2022-07-18T03:18:25;7.80;;;1.00;;
29200;SDS011;16244;51.956;12.980;2022-07-18T03:20:54;6.43;;;1.00;;
29200;SDS011;16244;51.956;12.980;2022-07-18T03:23:21;10.30;;;1.33;;
29200;SDS011;16244;51.956;12.980;2022-07-18T03:25:48;8.10;;;1.00;;
29200;SDS011;16244;51.956;12.980;2022-07-18T03:28:15;6.67;;;1.17;;
29200;SDS011;16244;51.956;12.980;2022-07-18T03:30:42;9.10;;;1.27;;
29200;SDS011;16244;51.956;12.980;2022-07-18T03:33:09;6.83;;;1.00;;
29200;SDS011;16244;51.956;12.980;2022-07-18T03:35:36;15.83;;;1.60;;
29200;SDS011;16244;51.956;12.980;2022-07-18T03:38:04;9.07;;;1.20;;
29200;SDS011;16244;51.956;12.980;2022-07-18T03:40:31;8.30;;;1.00;;
29200;SDS011;16244;51.956;12.980;2022-07-18T03:42:58;6.73;;;1.03;;
29200;SDS011;16244;51.956;12.980;2022-07-18T03:45:26;9.93;;;1.60;;
29200;SDS011;16244;51.956;12.980;2022-07-18T03:47:53;7.60;;;1.40;;
29200;SDS011;16244;51.956;12.980;2022-07-18T03:50:20;6.70;;;1.27;;
29200;SDS011;16244;51.956;12.980;2022-07-18T03:52:48;11.07;;;1.37;;
29200;SDS011;16244;51.956;12.980;2022-07-18T03:55:16;18.27;;;1.63;;
29200;SDS011;16244;51.956;12.980;2022-07-18T03:57:43;6.20;;;1.10;;
29200;SDS011;16244;51.956;12.980;2022-07-18T04:00:11;6.90;;;1.20;;
29200;SDS011;16244;51.956;12.980;2022-07-18T04:02:38;12.97;;;1.80;;
29200;SDS011;16244;51.956;12.980;2022-07-18T04:05:07;12.43;;;1.73;;
29200;SDS011;16244;51.956;12.980;2022-07-18T04:07:35;7.40;;;1.20;;
29200;SDS011;16244;51.956;12.980;2022-07-18T04:10:03;10.60;;;1.40;;
29200;SDS011;16244;51.956;12.980;2022-07-18T04:12:32;9.40;;;1.13;;
29200;SDS011;16244;51.956;12.980;2022-07-18T04:15:00;5.90;;;1.10;;
29200;SDS011;16244;51.956;12.980;2022-07-18T04:17:29;6.13;;;1.53;;
29200;SDS011;16244;51.956;12.980;2022-07-18T04:19:56;7.00;;;1.33;;
29200;SDS011;16244;51.956;12.980;2022-07-18T04:22:23;10.30;;;1.27;;
29200;SDS011;16244;51.956;12.980;2022-07-18T04:24:50;10.50;;;1.37;;
29200;SDS011;16244;51.956;12.980;2022-07-18T04:27:17;6.50;;;1.30;;
29200;SDS011;16244;51.956;12.980;2022-07-18T04:29:45;10.57;;;1.23;;
29200;SDS011;16244;51.956;12.980;2022-07-18T04:32:12;6.10;;;1.30;;
29200;SDS011;16244;51.956;12.980;2022-07-18T04:34:39;10.90;;;1.10;;
29200;SDS011;16244;51.956;12.980;2022-07-18T04:37:07;13.83;;;1.30;;
29200;SDS011;16244;51.956;12.980;2022-07-18T04:39:35;7.57;;;1.20;;
29200;SDS011;16244;51.956;12.980;2022-07-18T04:42:02;13.47;;;1.50;;
29200;SDS011;16244;51.956;12.980;2022-07-18T04:44:29;8.13;;;1.03;;
29200;SDS011;16244;51.956;12.980;2022-07-18T04:46:57;7.53;;;1.10;;
29200;SDS011;16244;51.956;12.980;2022-07-18T04:49:25;10.50;;;1.37;;
29200;SDS011;16244;51.956;12.980;2022-07-18T04:52:20;6.10;;;1.10;;
29200;SDS011;16244;51.956;12.980;2022-07-18T04:55:03;12.20;;;2.40;;
29200;SDS011;16244;51.956;12.980;2022-07-18T04:57:49;8.63;;;1.23;;
29200;SDS011;16244;51.956;12.980;2022-07-18T05:00:46;10.70;;;1.77;;
29200;SDS011;16244;51.956;12.980;2022-07-18T05:06:44;11.20;;;2.30;;
29200;SDS011;16244;51.956;12.980;2022-07-18T05:09:27;15.50;;;1.90;;
29200;SDS011;16244;51.956;12.980;2022-07-18T05:12:23;17.80;;;1.80;;
29200;SDS011;16244;51.956;12.980;2022-07-18T05:15:06;11.73;;;1.80;;
29200;SDS011;16244;51.956;12.980;2022-07-18T05:17:52;24.30;;;2.70;;
29200;SDS011;16244;51.956;12.980;2022-07-18T05:27:28;14.63;;;1.60;;
29200;SDS011;16244;51.956;12.980;2022-07-18T05:30:25;8.13;;;1.13;;
29200;SDS011;16244;51.956;12.980;2022-07-18T05:33:06;17.87;;;1.47;;
29200;SDS011;16244;51.956;12.980;2022-07-18T05:35:48;15.83;;;1.17;;
29200;SDS011;16244;51.956;12.980;2022-07-18T05:38:44;10.00;;;0.93;;
29200;SDS011;16244;51.956;12.980;2022-07-18T05:41:27;13.37;;;1.10;;
29200;SDS011;16244;51.956;12.980;2022-07-18T05:44:11;10.57;;;1.80;;
29200;SDS011;16244;51.956;12.980;2022-07-18T05:47:07;9.73;;;1.60;;
29200;SDS011;16244;51.956;12.980;2022-07-18T05:49:52;10.50;;;1.30;;
29200;SDS011;16244;51.956;12.980;2022-07-18T05:52:36;5.80;;;0.70;;
29200;SDS011;16244;51.956;12.980;2022-07-18T05:55:18;9.50;;;1.27;;
29200;SDS011;16244;51.956;12.980;2022-07-18T05:58:14;7.70;;;0.80;;
29200;SDS011;16244;51.956;12.980;2022-07-18T06:04:11;12.50;;;0.93;;
29200;SDS011;16244;51.956;12.980;2022-07-18T06:06:54;13.60;;;1.40;;
29200;SDS011;16244;51.956;12.980;2022-07-18T06:09:41;10.80;;;1.10;;
29200;SDS011;16244;51.956;12.980;2022-07-18T06:12:08;9.33;;;1.10;;
29200;SDS011;16244;51.956;12.980;2022-07-18T06:14:35;8.80;;;1.40;;
29200;SDS011;16244;51.956;12.980;2022-07-18T06:17:04;9.00;;;1.40;;
29200;SDS011;16244;51.956;12.980;2022-07-18T06:19:31;10.20;;;0.90;;
29200;SDS011;16244;51.956;12.980;2022-07-18T06:21:58;11.17;;;0.90;;
29200;SDS011;16244;51.956;12.980;2022-07-18T06:24:26;10.73;;;1.17;;
29200;SDS011;16244;51.956;12.980;2022-07-18T06:26:53;16.40;;;1.00;;
29200;SDS011;16244;51.956;12.980;2022-07-18T06:29:20;17.37;;;1.87;;
29200;SDS011;16244;51.956;12.980;2022-07-18T06:31:47;10.17;;;1.17;;
29200;SDS011;16244;51.956;12.980;2022-07-18T06:34:15;11.20;;;1.10;;
29200;SDS011;16244;51.956;12.980;2022-07-18T06:36:42;10.80;;;1.10;;
29200;SDS011;16244;51.956;12.980;2022-07-18T06:39:09;11.67;;;1.40;;
29200;SDS011;16244;51.956;12.980;2022-07-18T06:41:37;15.27;;;1.37;;
29200;SDS011;16244;51.956;12.980;2022-07-18T06:44:05;12.67;;;1.17;;
29200;SDS011;16244;51.956;12.980;2022-07-18T06:46:33;11.07;;;1.10;;
29200;SDS011;16244;51.956;12.980;2022-07-18T06:49:02;15.50;;;1.10;;
29200;SDS011;16244;51.956;12.980;2022-07-18T06:51:31;19.77;;;1.20;;
29200;SDS011;16244;51.956;12.980;2022-07-18T06:53:58;10.67;;;0.93;;
29200;SDS011;16244;51.956;12.980;2022-07-18T06:56:25;17.63;;;1.17;;
29200;SDS011;16244;51.956;12.980;2022-07-18T06:58:52;12.70;;;0.97;;
29200;SDS011;16244;51.956;12.980;2022-07-18T07:01:20;12.70;;;1.30;;
29200;SDS011;16244;51.956;12.980;2022-07-18T07:03:47;16.40;;;1.20;;
29200;SDS011;16244;51.956;12.980;2022-07-18T07:06:14;17.80;;;1.37;;
29200;SDS011;16244;51.956;12.980;2022-07-18T07:08:43;15.00;;;2.07;;
29200;SDS011;16244;51.956;12.980;2022-07-18T07:11:10;14.90;;;1.47;;
29200;SDS011;16244;51.956;12.980;2022-07-18T07:13:37;17.73;;;1.03;;
29200;SDS011;16244;51.956;12.980;2022-07-18T07:16:05;16.20;;;1.10;;
29200;SDS011;16244;51.956;12.980;2022-07-18T07:18:32;21.17;;;1.67;;
29200;SDS011;16244;51.956;12.980;2022-07-18T07:20:59;21.23;;;1.97;;
29200;SDS011;16244;51.956;12.980;2022-07-18T07:23:27;15.40;;;0.90;;
29200;SDS011;16244;51.956;12.980;2022-07-18T07:25:56;14.90;;;0.73;;
29200;SDS011;16244;51.956;12.980;2022-07-18T07:28:23;19.13;;;1.13;;
29200;SDS011;16244;51.956;12.980;2022-07-18T07:30:50;14.80;;;0.80;;
29200;SDS011;16244;51.956;12.980;2022-07-18T07:33:17;16.30;;;1.00;;
29200;SDS011;16244;51.956;12.980;2022-07-18T07:35:44;17.50;;;1.10;;
29200;SDS011;16244;51.956;12.980;2022-07-18T07:38:12;15.35;;;0.85;;
29200;SDS011;16244;51.956;12.980;2022-07-18T07:40:43;16.45;;;0.93;;
29200;SDS011;16244;51.956;12.980;2022-07-18T07:43:13;22.17;;;0.90;;
29200;SDS011;16244;51.956;12.980;2022-07-18T07:45:41;15.60;;;1.00;;
29200;SDS011;16244;51.956;12.980;2022-07-18T07:48:09;16.38;;;0.90;;
29200;SDS011;16244;51.956;12.980;2022-07-18T07:50:36;14.90;;;0.90;;
29200;SDS011;16244;51.956;12.980;2022-07-18T07:53:04;16.98;;;1.00;;
29200;SDS011;16244;51.956;12.980;2022-07-18T07:55:31;15.52;;;0.90;;
29200;SDS011;16244;51.956;12.980;2022-07-18T07:57:58;16.90;;;1.00;;
29200;SDS011;16244;51.956;12.980;2022-07-18T08:00:26;16.50;;;1.00;;
29200;SDS011;16244;51.956;12.980;2022-07-18T08:02:55;17.45;;;0.90;;
29200;SDS011;16244;51.956;12.980;2022-07-18T08:05:24;19.60;;;1.95;;
29200;SDS011;16244;51.956;12.980;2022-07-18T08:07:52;13.65;;;0.88;;
29200;SDS011;16244;51.956;12.980;2022-07-18T08:10:19;21.67;;;0.90;;
29200;SDS011;16244;51.956;12.980;2022-07-18T08:12:47;17.00;;;1.08;;
29200;SDS011;16244;51.956;12.980;2022-07-18T08:15:14;15.65;;;0.80;;
29200;SDS011;16244;51.956;12.980;2022-07-18T08:17:43;13.65;;;0.95;;
29200;SDS011;16244;51.956;12.980;2022-07-18T08:20:11;16.02;;;1.20;;
29200;SDS011;16244;51.956;12.980;2022-07-18T08:22:50;16.98;;;0.80;;
29200;SDS011;16244;51.956;12.980;2022-07-18T08:25:18;15.23;;;1.75;;
29200;SDS011;16244;51.956;12.980;2022-07-18T08:27:46;17.00;;;0.80;;
29200;SDS011;16244;51.956;12.980;2022-07-18T08:30:13;15.48;;;1.52;;
29200;SDS011;16244;51.956;12.980;2022-07-18T08:32:40;13.98;;;0.93;;
29200;SDS011;16244;51.956;12.980;2022-07-18T08:35:09;12.82;;;0.80;;
29200;SDS011;16244;51.956;12.980;2022-07-18T08:37:36;13.38;;;1.05;;
29200;SDS011;16244;51.956;12.980;2022-07-18T08:40:04;15.55;;;1.27;;
29200;SDS011;16244;51.956;12.980;2022-07-18T08:42:32;16.38;;;1.33;;
29200;SDS011;16244;51.956;12.980;2022-07-18T08:45:00;13.65;;;1.00;;
29200;SDS011;16244;51.956;12.980;2022-07-18T08:47:28;14.63;;;1.08;;
29200;SDS011;16244;51.956;12.980;2022-07-18T08:49:56;14.45;;;1.33;;
29200;SDS011;16244;51.956;12.980;2022-07-18T08:52:25;12.27;;;1.08;;
29200;SDS011;16244;51.956;12.980;2022-07-18T08:54:54;11.82;;;0.90;;
29200;SDS011;16244;51.956;12.980;2022-07-18T08:57:21;19.45;;;1.40;;
29200;SDS011;16244;51.956;12.980;2022-07-18T08:59:48;12.68;;;0.98;;
29200;SDS011;16244;51.956;12.980;2022-07-18T09:02:16;12.02;;;1.10;;
29200;SDS011;16244;51.956;12.980;2022-07-18T09:04:43;20.05;;;1.60;;
29200;SDS011;16244;51.956;12.980;2022-07-18T09:07:23;13.02;;;1.50;;
29200;SDS011;16244;51.956;12.980;2022-07-18T09:09:53;13.85;;;1.63;;
29200;SDS011;16244;51.956;12.980;2022-07-18T09:12:23;17.98;;;1.52;;
29200;SDS011;16244;51.956;12.980;2022-07-18T09:14:50;13.98;;;1.33;;
29200;SDS011;16244;51.956;12.980;2022-07-18T09:17:19;13.02;;;1.23;;
29200;SDS011;16244;51.956;12.980;2022-07-18T09:19:58;14.00;;;1.35;;
29200;SDS011;16244;51.956;12.980;2022-07-18T09:22:29;18.63;;;2.70;;
29200;SDS011;16244;51.956;12.980;2022-07-18T09:24:59;17.25;;;1.60;;
29200;SDS011;16244;51.956;12.980;2022-07-18T09:27:29;12.85;;;1.23;;
29200;SDS011;16244;51.956;12.980;2022-07-18T09:30:07;19.38;;;1.90;;
29200;SDS011;16244;51.956;12.980;2022-07-18T09:32:46;12.57;;;1.05;;
29200;SDS011;16244;51.956;12.980;2022-07-18T09:35:17;14.05;;;1.55;;
29200;SDS011;16244;51.956;12.980;2022-07-18T09:37:57;20.88;;;1.95;;
29200;SDS011;16244;51.956;12.980;2022-07-18T09:40:28;13.02;;;1.75;;
29200;SDS011;16244;51.956;12.980;2022-07-18T09:42:57;15.02;;;1.80;;
29200;SDS011;16244;51.956;12.980;2022-07-18T09:45:26;13.70;;;2.42;;
29200;SDS011;16244;51.956;12.980;2022-07-18T09:47:55;15.25;;;2.70;;
29200;SDS011;16244;51.956;12.980;2022-07-18T09:50:30;16.52;;;2.92;;
29200;SDS011;16244;51.956;12.980;2022-07-18T09:53:03;14.13;;;3.15;;
29200;SDS011;16244;51.956;12.980;2022-07-18T09:55:35;13.48;;;2.70;;
29200;SDS011;16244;51.956;12.980;2022-07-18T09:58:07;14.07;;;2.22;;
29200;SDS011;16244;51.956;12.980;2022-07-18T10:00:37;20.05;;;3.70;;
29200;SDS011;16244;51.956;12.980;2022-07-18T10:03:06;13.85;;;2.80;;
29200;SDS011;16244;51.956;12.980;2022-07-18T10:05:34;17.38;;;2.88;;
29200;SDS011;16244;51.956;12.980;2022-07-18T10:08:05;15.18;;;2.53;;
29200;SDS011;16244;51.956;12.980;2022-07-18T10:10:34;14.75;;;2.92;;
29200;SDS011;16244;51.956;12.980;2022-07-18T10:13:02;13.55;;;2.80;;
29200;SDS011;16244;51.956;12.980;2022-07-18T10:15:31;12.48;;;2.50;;
29200;SDS011;16244;51.956;12.980;2022-07-18T10:18:00;14.73;;;3.58;;
29200;SDS011;16244;51.956;12.980;2022-07-18T10:20:29;15.75;;;3.10;;
29200;SDS011;16244;51.956;12.980;2022-07-18T10:22:59;18.63;;;4.03;;
29200;SDS011;16244;51.956;12.980;2022-07-18T10:25:33;13.40;;;3.38;;
29200;SDS011;16244;51.956;12.980;2022-07-18T10:28:03;19.60;;;3.38;;
29200;SDS011;16244;51.956;12.980;2022-07-18T10:36:05;16.15;;;4.07;;
29200;SDS011;16244;51.956;12.980;2022-07-18T10:38:34;16.45;;;2.95;;
29200;SDS011;16244;51.956;12.980;2022-07-18T10:41:09;14.25;;;3.08;;
29200;SDS011;16244;51.956;12.980;2022-07-18T10:43:40;14.43;;;3.40;;
29200;SDS011;16244;51.956;12.980;2022-07-18T10:46:11;13.32;;;2.85;;
29200;SDS011;16244;51.956;12.980;2022-07-18T10:51:33;12.45;;;2.55;;
29200;SDS011;16244;51.956;12.980;2022-07-18T10:54:05;15.82;;;2.88;;
29200;SDS011;16244;51.956;12.980;2022-07-18T10:59:38;14.10;;;2.47;;
29200;SDS011;16244;51.956;12.980;2022-07-18T11:02:32;12.85;;;2.63;;
29200;SDS011;16244;51.956;12.980;2022-07-18T11:05:01;19.95;;;2.95;;
29200;SDS011;16244;51.956;12.980;2022-07-18T11:07:29;16.13;;;2.97;;
29200;SDS011;16244;51.956;12.980;2022-07-18T11:09:56;17.13;;;3.30;;
29200;SDS011;16244;51.956;12.980;2022-07-18T11:12:26;18.05;;;3.35;;
29200;SDS011;16244;51.956;12.980;2022-07-18T11:14:58;13.23;;;2.90;;
29200;SDS011;16244;51.956;12.980;2022-07-18T11:17:53;13.45;;;2.20;;
29200;SDS011;16244;51.956;12.980;2022-07-18T11:20:26;13.20;;;2.80;;
29200;SDS011;16244;51.956;12.980;2022-07-18T11:23:03;11.90;;;2.30;;
29200;SDS011;16244;51.956;12.980;2022-07-18T11:25:31;13.52;;;2.58;;
29200;SDS011;16244;51.956;12.980;2022-07-18T11:28:00;12.55;;;2.28;;
29200;SDS011;16244;51.956;12.980;2022-07-18T11:30:34;12.93;;;2.72;;
29200;SDS011;16244;51.956;12.980;2022-07-18T11:33:02;12.13;;;2.60;;
29200;SDS011;16244;51.956;12.980;2022-07-18T11:35:29;11.77;;;2.00;;
29200;SDS011;16244;51.956;12.980;2022-07-18T11:37:56;13.27;;;2.67;;
29200;SDS011;16244;51.956;12.980;2022-07-18T11:40:23;13.77;;;2.50;;
29200;SDS011;16244;51.956;12.980;2022-07-18T11:42:50;11.75;;;2.33;;
29200;SDS011;16244;51.956;12.980;2022-07-18T11:45:18;11.25;;;2.40;;
29200;SDS011;16244;51.956;12.980;2022-07-18T11:47:49;14.13;;;2.50;;
29200;SDS011;16244;51.956;12.980;2022-07-18T11:50:18;13.43;;;2.65;;
29200;SDS011;16244;51.956;12.980;2022-07-18T11:52:59;14.05;;;2.95;;
29200;SDS011;16244;51.956;12.980;2022-07-18T11:55:36;14.88;;;3.65;;
29200;SDS011;16244;51.956;12.980;2022-07-18T11:58:07;13.82;;;2.85;;
29200;SDS011;16244;51.956;12.980;2022-07-18T12:00:36;13.63;;;2.90;;
29200;SDS011;16244;51.956;12.980;2022-07-18T12:03:04;15.43;;;3.17;;
29200;SDS011;16244;51.956;12.980;2022-07-18T12:05:37;13.13;;;2.53;;
29200;SDS011;16244;51.956;12.980;2022-07-18T12:08:25;14.00;;;2.53;;
29200;SDS011;16244;51.956;12.980;2022-07-18T12:11:05;19.08;;;3.20;;
29200;SDS011;16244;51.956;12.980;2022-07-18T12:13:41;14.25;;;3.00;;
29200;SDS011;16244;51.956;12.980;2022-07-18T12:16:22;17.60;;;3.55;;
29200;SDS011;16244;51.956;12.980;2022-07-18T12:18:50;13.25;;;2.70;;
29200;SDS011;16244;51.956;12.980;2022-07-18T12:21:18;19.48;;;3.45;;
29200;SDS011;16244;51.956;12.980;2022-07-18T12:23:45;15.00;;;3.22;;
29200;SDS011;16244;51.956;12.980;2022-07-18T12:26:25;16.00;;;3.88;;
29200;SDS011;16244;51.956;12.980;2022-07-18T12:29:03;13.13;;;3.10;;
29200;SDS011;16244;51.956;12.980;2022-07-18T12:31:42;15.07;;;3.33;;
29200;SDS011;16244;51.956;12.980;2022-07-18T12:34:11;14.40;;;2.63;;
29200;SDS011;16244;51.956;12.980;2022-07-18T12:36:51;16.73;;;3.28;;
29200;SDS011;16244;51.956;12.980;2022-07-18T12:39:26;16.10;;;3.60;;
29200;SDS011;16244;51.956;12.980;2022-07-18T12:41:54;14.00;;;2.80;;
29200;SDS011;16244;51.956;12.980;2022-07-18T12:44:21;17.20;;;3.72;;
29200;SDS011;16244;51.956;12.980;2022-07-18T12:46:50;15.10;;;3.25;;
29200;SDS011;16244;51.956;12.980;2022-07-18T12:49:17;16.65;;;3.65;;
29200;SDS011;16244;51.956;12.980;2022-07-18T12:51:44;18.73;;;3.40;;
29200;SDS011;16244;51.956;12.980;2022-07-18T12:54:12;15.57;;;3.90;;
29200;SDS011;16244;51.956;12.980;2022-07-18T12:56:40;16.10;;;4.18;;
29200;SDS011;16244;51.956;12.980;2022-07-18T12:59:07;13.07;;;3.67;;
29200;SDS011;16244;51.956;12.980;2022-07-18T13:01:34;17.52;;;6.30;;
29200;SDS011;16244;51.956;12.980;2022-07-18T13:04:04;14.80;;;3.25;;
29200;SDS011;16244;51.956;12.980;2022-07-18T13:06:31;14.88;;;3.47;;
29200;SDS011;16244;51.956;12.980;2022-07-18T13:08:58;18.15;;;3.55;;
29200;SDS011;16244;51.956;12.980;2022-07-18T13:11:25;14.63;;;3.40;;
29200;SDS011;16244;51.956;12.980;2022-07-18T13:13:52;15.50;;;3.58;;
29200;SDS011;16244;51.956;12.980;2022-07-18T13:16:19;15.15;;;3.90;;
29200;SDS011;16244;51.956;12.980;2022-07-18T13:18:46;14.20;;;2.97;;
29200;SDS011;16244;51.956;12.980;2022-07-18T13:21:15;15.65;;;4.07;;
29200;SDS011;16244;51.956;12.980;2022-07-18T13:23:43;14.68;;;2.95;;
29200;SDS011;16244;51.956;12.980;2022-07-18T13:26:11;25.23;;;4.55;;
29200;SDS011;16244;51.956;12.980;2022-07-18T13:28:38;13.25;;;3.22;;
29200;SDS011;16244;51.956;12.980;2022-07-18T13:31:05;17.38;;;3.45;;
29200;SDS011;16244;51.956;12.980;2022-07-18T13:33:32;17.63;;;3.88;;
29200;SDS011;16244;51.956;12.980;2022-07-18T13:36:00;13.65;;;3.05;;
29200;SDS011;16244;51.956;12.980;2022-07-18T13:38:29;21.10;;;3.08;;
29200;SDS011;16244;51.956;12.980;2022-07-18T13:40:56;16.58;;;3.55;;
29200;SDS011;16244;51.956;12.980;2022-07-18T13:43:23;16.00;;;4.13;;
29200;SDS011;16244;51.956;12.980;2022-07-18T13:45:50;14.38;;;2.92;;
29200;SDS011;16244;51.956;12.980;2022-07-18T13:48:17;14.30;;;3.63;;
29200;SDS011;16244;51.956;12.980;2022-07-18T13:50:44;14.82;;;3.63;;
29200;SDS011;16244;51.956;12.980;2022-07-18T13:53:11;14.10;;;3.17;;
29200;SDS011;16244;51.956;12.980;2022-07-18T13:55:40;13.32;;;3.00;;
29200;SDS011;16244;51.956;12.980;2022-07-18T13:58:07;19.40;;;5.20;;
29200;SDS011;16244;51.956;12.980;2022-07-18T14:00:34;13.75;;;4.20;;
29200;SDS011;16244;51.956;12.980;2022-07-18T14:03:02;12.63;;;2.97;;
29200;SDS011;16244;51.956;12.980;2022-07-18T14:05:31;12.35;;;3.20;;
29200;SDS011;16244;51.956;12.980;2022-07-18T14:07:58;11.70;;;2.70;;
29200;SDS011;16244;51.956;12.980;2022-07-18T14:10:26;14.45;;;2.42;;
29200;SDS011;16244;51.956;12.980;2022-07-18T14:12:54;14.18;;;2.92;;
29200;SDS011;16244;51.956;12.980;2022-07-18T14:15:21;17.60;;;2.70;;
29200;SDS011;16244;51.956;12.980;2022-07-18T14:17:49;17.50;;;3.17;;
29200;SDS011;16244;51.956;12.980;2022-07-18T14:20:16;13.15;;;3.33;;
29200;SDS011;16244;51.956;12.980;2022-07-18T14:22:44;15.45;;;2.92;;
29200;SDS011;16244;51.956;12.980;2022-07-18T14:25:12;13.95;;;2.97;;
29200;SDS011;16244;51.956;12.980;2022-07-18T14:27:42;13.18;;;2.80;;
29200;SDS011;16244;51.956;12.980;2022-07-18T14:30:12;12.82;;;2.78;;
29200;SDS011;16244;51.956;12.980;2022-07-18T14:32:40;12.80;;;3.13;;
29200;SDS011;16244;51.956;12.980;2022-07-18T14:35:08;11.80;;;2.95;;
29200;SDS011;16244;51.956;12.980;2022-07-18T14:37:36;13.23;;;2.70;;
29200;SDS011;16244;51.956;12.980;2022-07-18T14:40:04;13.65;;;2.08;;
29200;SDS011;16244;51.956;12.980;2022-07-18T14:42:32;15.25;;;3.20;;
29200;SDS011;16244;51.956;12.980;2022-07-18T14:45:00;10.82;;;2.20;;
29200;SDS011;16244;51.956;12.980;2022-07-18T14:47:29;11.38;;;2.47;;
29200;SDS011;16244;51.956;12.980;2022-07-18T14:49:58;13.45;;;2.80;;
29200;SDS011;16244;51.956;12.980;2022-07-18T14:52:25;13.77;;;2.67;;
29200;SDS011;16244;51.956;12.980;2022-07-18T14:54:52;11.85;;;2.38;;
29200;SDS011;16244;51.956;12.980;2022-07-18T14:57:19;16.33;;;2.60;;
29200;SDS011;16244;51.956;12.980;2022-07-18T14:59:46;12.85;;;2.65;;
29200;SDS011;16244;51.956;12.980;2022-07-18T15:02:14;11.85;;;2.38;;
29200;SDS011;16244;51.956;12.980;2022-07-18T15:04:42;15.18;;;2.55;;
29200;SDS011;16244;51.956;12.980;2022-07-18T15:07:09;11.63;;;2.13;;